Time;durP1;ratioP1;P1;durP2;ratioP2;P2;SDS_P1;SDS_P2;PMS_P1;PMS_P2;Temp;Humidity;BMP_temperature;BMP_pressure;BME280_temperature;BME280_humidity;BME280_pressure;Samples;Min_cycle;Max_cycle;Signal;HPM_P1;HPM_P2
2021/06/28 00:01:19;;;;;;;9.45;4.15;;;;;;;14.03;53.97;101663.63;5034933;28;20034;-69
2021/06/28 00:03:45;;;;;;;6.15;4.30;;;;;;;14.08;54.18;101655.53;5040192;28;20033;-69
2021/06/28 00:06:12;;;;;;;9.88;4.38;;;;;;;14.00;54.39;101655.00;5039474;28;20045;-69
2021/06/28 00:08:38;;;;;;;6.85;3.95;;;;;;;14.14;54.08;101634.22;5034431;28;20052;-69
2021/06/28 00:11:05;;;;;;;8.32;4.40;;;;;;;13.93;54.69;101652.63;5015714;28;20041;-69
2021/06/28 00:13:31;;;;;;;10.23;4.65;;;;;;;13.73;54.72;101661.34;5035017;28;20033;-69
2021/06/28 00:15:56;;;;;;;6.38;4.05;;;;;;;14.02;53.95;101661.06;5015649;28;20454;-68
2021/06/28 00:18:22;;;;;;;6.55;3.65;;;;;;;14.04;53.88;101664.47;5036040;28;20839;-68
2021/06/28 00:20:48;;;;;;;6.45;4.40;;;;;;;14.01;53.89;101667.22;5033722;28;20037;-69
2021/06/28 00:23:14;;;;;;;6.03;4.35;;;;;;;13.73;54.97;101663.09;5034742;28;20036;-69
2021/06/28 00:25:41;;;;;;;8.50;4.60;;;;;;;13.80;54.90;101667.19;5021467;28;20028;-69
2021/06/28 00:28:07;;;;;;;6.60;4.07;;;;;;;13.92;54.63;101664.06;5034543;28;20036;-69
2021/06/28 00:30:39;;;;;;;6.80;3.90;;;;;;;13.96;54.35;101659.53;5039623;28;20587;-69
2021/06/28 00:33:06;;;;;;;7.72;4.40;;;;;;;13.81;54.79;101655.78;5048219;28;20053;-69
2021/06/28 00:35:32;;;;;;;9.50;3.28;;;;;;;14.07;53.80;101670.44;5039137;28;20942;-69
2021/06/28 00:37:58;;;;;;;6.80;3.33;;;;;;;14.00;54.48;101663.75;5034338;28;20113;-69
2021/06/28 00:40:24;;;;;;;4.95;3.20;;;;;;;14.07;53.63;101664.34;5032747;28;20048;-69
2021/06/28 00:42:50;;;;;;;4.20;2.85;;;;;;;14.08;54.13;101659.03;5031632;28;20079;-68
2021/06/28 00:45:29;;;;;;;6.28;3.03;;;;;;;14.03;53.94;101657.50;5034680;28;20094;-68
2021/06/28 00:47:57;;;;;;;6.78;3.70;;;;;;;13.84;54.23;101650.38;5032069;28;20116;-68
2021/06/28 00:50:25;;;;;;;11.45;3.28;;;;;;;13.87;54.06;101647.63;5038645;28;20080;-69
2021/06/28 00:53:24;;;;;;;5.28;3.05;;;;;;;13.83;54.34;101643.44;5036160;28;20033;-69
2021/06/28 00:55:51;;;;;;;11.20;3.67;;;;;;;13.88;54.61;101640.63;5011535;28;20072;-69
2021/06/28 00:58:17;;;;;;;5.40;3.40;;;;;;;13.84;54.51;101641.66;5037989;28;20045;-68
2021/06/28 01:00:43;;;;;;;5.15;3.17;;;;;;;13.79;54.74;101639.22;5035287;28;20398;-68
2021/06/28 01:03:09;;;;;;;6.97;3.75;;;;;;;13.80;54.53;101633.03;5035716;28;20033;-68
2021/06/28 01:05:37;;;;;;;4.88;3.75;;;;;;;13.72;54.93;101627.25;5037401;28;20037;-68
2021/06/28 01:08:04;;;;;;;7.40;4.35;;;;;;;13.61;55.61;101629.47;5041275;28;20033;-68
2021/06/28 01:10:30;;;;;;;8.38;3.55;;;;;;;13.52;55.91;101622.78;5044021;28;20098;-68
2021/06/28 01:12:56;;;;;;;5.18;4.68;;;;;;;13.51;55.89;101623.69;5053724;28;20398;-68
2021/06/28 01:15:23;;;;;;;8.02;3.75;;;;;;;13.76;54.82;101626.19;5037078;28;20049;-68
2021/06/28 01:17:49;;;;;;;7.82;4.05;;;;;;;13.75;55.00;101621.88;5035068;28;20037;-68
2021/06/28 01:20:20;;;;;;;9.05;3.95;;;;;;;13.77;55.21;101617.41;5041904;28;20063;-68
2021/06/28 01:22:49;;;;;;;7.70;4.50;;;;;;;13.80;55.04;101619.03;5019877;28;20128;-68
2021/06/28 01:25:17;;;;;;;5.80;4.55;;;;;;;13.59;55.77;101612.94;5034320;28;20454;-68
2021/06/28 01:27:44;;;;;;;8.02;4.57;;;;;;;13.61;55.64;101619.81;5038644;28;20179;-68
2021/06/28 01:30:13;;;;;;;12.00;5.47;;;;;;;13.65;55.77;101620.53;5039725;28;20037;-69
2021/06/28 01:32:41;;;;;;;6.90;4.95;;;;;;;13.69;55.48;101616.88;5036525;28;20041;-69
2021/06/28 01:35:09;;;;;;;7.45;5.05;;;;;;;13.75;55.28;101621.88;5044721;28;20033;-69
2021/06/28 01:37:35;;;;;;;13.73;6.47;;;;;;;13.79;54.93;101614.72;5038079;28;20075;-69
2021/06/28 01:40:05;;;;;;;10.93;5.75;;;;;;;13.84;54.76;101610.97;5036340;28;20061;-69
2021/06/28 01:42:32;;;;;;;5.85;4.93;;;;;;;13.65;55.51;101610.91;5037249;28;20079;-69
2021/06/28 01:44:58;;;;;;;6.63;4.70;;;;;;;13.61;55.52;101603.22;5018042;28;20812;-69
2021/06/28 01:47:24;;;;;;;7.10;4.78;;;;;;;13.55;56.08;101604.28;5036804;28;20371;-69
2021/06/28 01:49:50;;;;;;;11.55;5.88;;;;;;;13.60;55.51;101604.13;5045879;22;20136;-72
2021/06/28 01:52:16;;;;;;;9.18;6.22;;;;;;;13.68;55.36;101607.28;5031182;28;20037;-70
2021/06/28 01:54:41;;;;;;;9.93;5.45;;;;;;;13.76;55.24;101614.84;5026710;28;20049;-70
2021/06/28 01:57:07;;;;;;;7.55;4.57;;;;;;;13.64;55.24;101608.31;5021462;28;20452;-70
2021/06/28 01:59:37;;;;;;;6.25;4.47;;;;;;;13.71;55.50;101610.63;5026124;28;20034;-72
2021/06/28 02:02:05;;;;;;;8.15;4.80;;;;;;;13.78;55.47;101602.50;5022687;28;20036;-72
2021/06/28 02:04:31;;;;;;;8.40;4.53;;;;;;;13.75;55.38;101600.84;5019439;28;20065;-70
2021/06/28 02:06:58;;;;;;;8.93;4.95;;;;;;;13.73;55.19;101598.28;5033337;28;20046;-70
2021/06/28 02:09:24;;;;;;;8.50;5.47;;;;;;;13.66;55.35;101603.88;5017628;28;20029;-71
2021/06/28 02:11:51;;;;;;;8.00;5.20;;;;;;;13.61;55.52;101593.56;5023551;28;20064;-72
2021/06/28 02:14:18;;;;;;;9.38;4.60;;;;;;;13.65;55.64;101595.13;5008316;28;20033;-69
2021/06/28 02:16:46;;;;;;;8.05;4.95;;;;;;;13.66;55.42;101596.00;5030229;28;20044;-71
2021/06/28 02:19:13;;;;;;;11.30;4.63;;;;;;;13.60;55.28;101589.19;5023039;28;20030;-72
2021/06/28 02:21:43;;;;;;;8.88;4.38;;;;;;;13.72;55.49;101580.81;5021453;28;20071;-73
2021/06/28 02:24:10;;;;;;;7.32;3.78;;;;;;;13.75;54.96;101573.72;5020372;28;20033;-72
2021/06/28 02:26:36;;;;;;;9.20;4.38;;;;;;;13.72;55.15;101570.31;5024644;28;20041;-70
2021/06/28 02:29:03;;;;;;;5.63;4.03;;;;;;;13.69;55.52;101569.56;5027426;28;20080;-71
2021/06/28 02:31:29;;;;;;;11.90;4.43;;;;;;;13.68;55.88;101571.34;5025191;28;20706;-71
2021/06/28 02:33:55;;;;;;;8.30;4.18;;;;;;;13.61;55.90;101564.66;5020148;28;20042;-70
2021/06/28 02:36:22;;;;;;;6.28;4.38;;;;;;;13.73;55.66;101572.00;5028887;28;20390;-70
2021/06/28 02:38:49;;;;;;;7.13;4.47;;;;;;;13.79;55.48;101577.94;5024082;28;20041;-71
2021/06/28 02:41:15;;;;;;;7.78;3.65;;;;;;;13.76;55.57;101576.28;5022503;28;20026;-72
2021/06/28 02:43:42;;;;;;;6.90;4.38;;;;;;;13.79;55.48;101576.16;5018503;28;20384;-71
2021/06/28 02:46:09;;;;;;;9.07;3.95;;;;;;;13.71;55.39;101573.84;5026472;28;21884;-72
2021/06/28 02:48:35;;;;;;;5.80;4.22;;;;;;;13.76;55.66;101572.81;5018150;28;20438;-71
2021/06/28 02:51:01;;;;;;;7.13;5.15;;;;;;;13.78;55.54;101577.06;5023370;28;20037;-71
2021/06/28 02:53:26;;;;;;;11.95;5.25;;;;;;;13.78;55.53;101569.19;5004834;28;20042;-71
2021/06/28 02:55:52;;;;;;;4.15;3.75;;;;;;;13.80;55.57;101567.34;5020776;28;20037;-71
2021/06/28 02:58:19;;;;;;;4.82;3.15;;;;;;;13.70;55.84;101566.06;5023258;28;20460;-71
2021/06/28 03:00:46;;;;;;;5.65;3.97;;;;;;;13.83;55.23;101569.88;5025252;28;20057;-71
2021/06/28 03:03:12;;;;;;;7.13;3.95;;;;;;;13.97;55.07;101578.94;5027831;28;20025;-72
2021/06/28 03:05:38;;;;;;;9.93;5.25;;;;;;;13.93;54.61;101573.78;5031546;28;20052;-73
2021/06/28 03:08:06;;;;;;;6.03;3.97;;;;;;;13.93;54.81;101573.78;5035140;28;20490;-73
2021/06/28 03:10:34;;;;;;;9.10;5.15;;;;;;;13.86;54.98;101574.97;5019631;28;20036;-71
2021/06/28 03:12:59;;;;;;;5.20;4.30;;;;;;;13.90;54.62;101568.69;5019771;28;20210;-72
2021/06/28 03:15:25;;;;;;;6.32;5.35;;;;;;;13.89;54.57;101569.56;5021316;28;20364;-72
2021/06/28 03:17:51;;;;;;;8.00;4.65;;;;;;;13.85;54.80;101565.41;5019583;28;20147;-71
2021/06/28 03:20:18;;;;;;;10.48;4.72;;;;;;;13.99;54.32;101561.31;5019551;28;20030;-71
2021/06/28 03:22:45;;;;;;;11.32;5.43;;;;;;;13.94;54.27;101559.75;5017524;28;20108;-71
2021/06/28 03:25:13;;;;;;;9.25;5.95;;;;;;;13.91;54.43;101565.09;5020548;28;20056;-72
2021/06/28 03:27:39;;;;;;;10.65;5.07;;;;;;;13.99;54.37;101569.22;5017226;28;20034;-71
2021/06/28 03:30:07;;;;;;;8.20;4.85;;;;;;;14.04;54.56;101559.34;4999166;28;20029;-71
2021/06/28 03:32:32;;;;;;;6.60;5.07;;;;;;;14.03;54.42;101562.88;5016745;28;20034;-72
2021/06/28 03:34:58;;;;;;;8.68;4.63;;;;;;;13.99;54.50;101562.16;5020109;28;20451;-74
2021/06/28 03:37:24;;;;;;;8.05;4.80;;;;;;;14.09;53.99;101555.56;5019303;28;20098;-71
2021/06/28 03:39:50;;;;;;;7.00;3.97;;;;;;;14.14;54.17;101555.38;5016650;28;20037;-71
2021/06/28 03:42:15;;;;;;;7.05;4.20;;;;;;;14.22;54.04;101558.53;5019131;28;20593;-73
2021/06/28 03:44:41;;;;;;;8.93;4.25;;;;;;;14.14;53.85;101555.38;5021391;28;20053;-71
2021/06/28 03:47:07;;;;;;;12.55;4.25;;;;;;;14.13;54.31;101551.03;5021102;28;20068;-73
2021/06/28 03:49:33;;;;;;;6.68;4.75;;;;;;;14.20;54.15;101557.72;5016879;28;20033;-72
2021/06/28 03:51:58;;;;;;;8.60;3.08;;;;;;;14.26;54.26;101552.22;5019173;28;20099;-71
2021/06/28 03:54:24;;;;;;;9.57;4.22;;;;;;;14.31;53.82;101558.09;5017984;28;20048;-71
2021/06/28 03:56:49;;;;;;;13.20;3.58;;;;;;;14.33;54.02;101561.53;5020320;28;20036;-71
2021/06/28 03:59:15;;;;;;;8.90;4.47;;;;;;;14.39;53.83;101554.25;5019244;28;20053;-71
2021/06/28 04:01:41;;;;;;;10.15;4.40;;;;;;;14.47;53.63;101546.91;5020983;28;20042;-72
2021/06/28 04:04:06;;;;;;;7.30;3.45;;;;;;;14.47;53.96;101546.91;5032459;28;20056;-71
2021/06/28 04:06:32;;;;;;;7.97;4.10;;;;;;;14.42;54.14;101543.66;5018896;28;20049;-71
2021/06/28 04:08:58;;;;;;;10.27;5.00;;;;;;;14.51;53.89;101540.59;5023347;28;20033;-73
2021/06/28 04:11:24;;;;;;;9.57;3.58;;;;;;;14.67;53.39;101544.22;5018232;28;20061;-71
2021/06/28 04:13:49;;;;;;;9.52;4.88;;;;;;;14.70;53.74;101540.59;5030049;28;20074;-72
2021/06/28 04:16:15;;;;;;;8.55;4.47;;;;;;;14.79;53.81;101536.66;5017516;28;20032;-70
2021/06/28 04:18:41;;;;;;;7.50;5.13;;;;;;;14.90;53.51;101529.13;5018287;28;20041;-70
2021/06/28 04:21:06;;;;;;;13.80;4.70;;;;;;;14.92;53.78;101536.00;5022564;28;20049;-72
2021/06/28 04:23:32;;;;;;;12.18;4.70;;;;;;;14.93;53.73;101535.09;5019051;28;20101;-71
2021/06/28 04:25:58;;;;;;;5.95;4.55;;;;;;;14.94;53.55;101538.56;5016819;28;20044;-73
2021/06/28 04:28:23;;;;;;;10.90;5.00;;;;;;;15.15;53.66;101540.19;5025782;28;20029;-71
2021/06/28 04:30:49;;;;;;;7.20;4.28;;;;;;;15.38;53.00;101536.44;5021644;28;20037;-72
2021/06/28 04:33:15;;;;;;;8.00;4.47;;;;;;;15.59;52.96;101534.53;5007668;28;20581;-71
2021/06/28 04:35:41;;;;;;;8.68;5.03;;;;;;;15.74;52.43;101537.28;5014329;28;20041;-71
2021/06/28 04:38:07;;;;;;;8.38;4.47;;;;;;;15.86;52.12;101536.63;5027218;28;20223;-71
2021/06/28 04:40:33;;;;;;;10.20;4.70;;;;;;;15.80;52.19;101529.91;5021010;28;20037;-71
2021/06/28 04:42:59;;;;;;;5.32;4.38;;;;;;;15.78;52.75;101526.50;5030562;28;20034;-71
2021/06/28 04:45:26;;;;;;;7.85;4.53;;;;;;;15.91;52.44;101533.78;5032567;28;20047;-70
2021/06/28 04:47:53;;;;;;;8.00;4.18;;;;;;;16.15;52.09;101531.66;5026806;28;20030;-71
2021/06/28 04:50:22;;;;;;;8.15;4.65;;;;;;;16.29;51.88;101537.06;5019444;28;20076;-72
2021/06/28 04:52:51;;;;;;;6.38;3.88;;;;;;;16.18;51.85;101531.50;5018943;28;20058;-71
2021/06/28 04:55:18;;;;;;;6.28;3.40;;;;;;;16.59;51.35;101541.59;5024105;28;20022;-70
2021/06/28 04:57:45;;;;;;;5.20;4.05;;;;;;;16.82;51.06;101537.69;5018940;28;20044;-71
2021/06/28 05:00:15;;;;;;;9.30;4.15;;;;;;;16.90;51.11;101534.66;5026043;28;20119;-71
2021/06/28 05:02:41;;;;;;;5.65;4.32;;;;;;;16.99;50.91;101528.84;5035128;28;20044;-72
2021/06/28 05:05:07;;;;;;;7.45;4.38;;;;;;;17.16;50.41;101533.16;5024953;28;20106;-72
2021/06/28 05:07:33;;;;;;;6.07;4.22;;;;;;;17.21;50.47;101531.94;5029460;28;20045;-71
2021/06/28 05:09:59;;;;;;;7.28;4.32;;;;;;;18.35;48.09;101519.88;5038111;28;20156;-71
2021/06/28 05:12:25;;;;;;;6.32;3.38;;;;;;;20.18;43.03;101522.81;5024788;28;20088;-72
2021/06/28 05:14:50;;;;;;;9.18;4.85;;;;;;;21.63;39.90;101519.25;5023878;28;20750;-71
2021/06/28 05:17:16;;;;;;;6.45;3.40;;;;;;;22.46;38.14;101523.38;5025855;28;20040;-71
2021/06/28 05:19:41;;;;;;;6.75;3.17;;;;;;;23.70;35.90;101522.91;5025036;28;20372;-70
2021/06/28 05:22:07;;;;;;;6.68;2.88;;;;;;;24.37;33.98;101523.31;5022392;28;20147;-71
2021/06/28 05:24:33;;;;;;;3.90;2.55;;;;;;;24.88;33.36;101524.97;5020716;28;20092;-70
2021/06/28 05:26:59;;;;;;;6.65;2.90;;;;;;;24.99;32.59;101530.19;5028311;28;20034;-73
2021/06/28 05:29:25;;;;;;;5.72;2.72;;;;;;;25.02;32.14;101529.09;5029251;28;20026;-69
2021/06/28 05:31:51;;;;;;;4.10;2.30;;;;;;;25.36;32.20;101521.47;5023163;28;20418;-71
2021/06/28 05:34:16;;;;;;;6.72;3.10;;;;;;;25.63;31.01;101523.41;5019390;28;20116;-70
2021/06/28 05:36:42;;;;;;;4.15;2.50;;;;;;;25.72;31.54;101518.16;5019953;28;20426;-71
2021/06/28 05:39:08;;;;;;;3.97;3.28;;;;;;;26.05;30.74;101525.66;5025585;28;20029;-72
2021/06/28 05:41:34;;;;;;;4.03;2.33;;;;;;;27.02;30.04;101509.94;5019919;28;20057;-71
2021/06/28 05:43:59;;;;;;;4.47;2.55;;;;;;;26.27;30.24;101513.72;5025745;28;20053;-70
2021/06/28 05:46:25;;;;;;;5.32;2.28;;;;;;;26.97;29.67;101513.09;5021063;28;20375;-71
2021/06/28 05:48:51;;;;;;;5.13;3.53;;;;;;;26.93;29.52;101519.75;5024733;28;20037;-71
2021/06/28 05:51:19;;;;;;;6.45;3.28;;;;;;;27.14;29.98;101514.13;5022059;28;20048;-72
2021/06/28 05:53:45;;;;;;;3.58;2.83;;;;;;;27.72;27.90;101520.75;5020431;28;20091;-71
2021/06/28 05:56:11;;;;;;;6.85;2.70;;;;;;;28.69;27.86;101522.13;5025544;28;20038;-72
2021/06/28 05:58:36;;;;;;;4.32;3.38;;;;;;;27.95;28.29;101525.56;5028727;28;20041;-73
2021/06/28 06:01:03;;;;;;;2.83;2.20;;;;;;;28.49;27.28;101528.78;5033877;28;20200;-74
2021/06/28 06:03:28;;;;;;;7.80;4.05;;;;;;;28.29;27.17;101531.75;5021008;28;20042;-72
2021/06/28 06:05:54;;;;;;;10.50;3.97;;;;;;;27.67;28.02;101515.81;5019175;28;20055;-72
2021/06/28 06:08:24;;;;;;;3.00;2.38;;;;;;;27.10;28.97;101518.94;5019529;28;20040;-73
2021/06/28 06:10:54;;;;;;;4.15;3.17;;;;;;;27.87;28.15;101523.66;5021839;28;20053;-73
2021/06/28 06:13:20;;;;;;;3.13;2.42;;;;;;;28.49;27.49;101518.84;5019341;28;20478;-73
2021/06/28 06:15:46;;;;;;;6.60;2.75;;;;;;;29.00;27.29;101513.41;5018220;28;20049;-71
2021/06/28 06:18:12;;;;;;;4.30;2.72;;;;;;;29.43;26.44;101508.66;5020637;28;20025;-71
2021/06/28 06:20:38;;;;;;;5.18;3.33;;;;;;;30.13;26.04;101505.28;5022576;28;20492;-72
2021/06/28 06:23:03;;;;;;;6.60;3.13;;;;;;;29.52;26.71;101501.41;5017944;28;20132;-72
2021/06/28 06:25:29;;;;;;;5.90;3.22;;;;;;;29.01;26.97;101496.22;5024138;28;20045;-71
2021/06/28 06:27:54;;;;;;;3.67;2.78;;;;;;;29.91;26.38;101497.97;5031363;28;20032;-71
2021/06/28 06:30:20;;;;;;;6.97;3.25;;;;;;;29.55;25.93;101507.31;5021979;28;20037;-71
2021/06/28 06:32:48;;;;;;;3.72;3.35;;;;;;;28.72;26.81;101505.66;5028688;28;20037;-72
2021/06/28 06:35:14;;;;;;;6.38;3.45;;;;;;;29.76;26.39;101509.44;5021084;28;20028;-71
2021/06/28 06:37:40;;;;;;;4.63;3.60;;;;;;;29.78;25.80;101517.38;5024310;28;20062;-73
2021/06/28 06:40:06;;;;;;;5.25;3.45;;;;;;;29.20;26.92;101519.31;5015858;28;20029;-72
2021/06/28 06:42:32;;;;;;;6.95;3.88;;;;;;;29.83;25.78;101527.63;5021758;28;20068;-71
2021/06/28 06:44:57;;;;;;;5.30;2.95;;;;;;;29.45;28.31;101530.88;5023703;28;20056;-74
2021/06/28 06:47:23;;;;;;;7.50;3.47;;;;;;;29.33;27.18;101526.88;5027554;28;20026;-71
2021/06/28 06:49:49;;;;;;;5.40;3.35;;;;;;;30.52;25.36;101525.13;5019207;28;20025;-72
2021/06/28 06:52:17;;;;;;;5.90;3.63;;;;;;;30.51;24.72;101523.41;5010309;28;20040;-73
2021/06/28 06:54:43;;;;;;;5.78;4.28;;;;;;;30.88;24.95;101530.78;5019670;28;20030;-72
2021/06/28 06:57:10;;;;;;;7.50;4.13;;;;;;;30.90;24.28;101517.94;5022586;28;20040;-73
2021/06/28 06:59:36;;;;;;;4.70;3.50;;;;;;;31.61;24.44;101510.38;5028069;28;20104;-70
2021/06/28 07:02:02;;;;;;;6.18;3.47;;;;;;;31.58;23.55;101508.06;5021393;28;20500;-71
2021/06/28 07:04:27;;;;;;;6.57;4.07;;;;;;;32.15;23.64;101505.69;5023321;28;20052;-71
2021/06/28 07:06:53;;;;;;;4.32;3.67;;;;;;;32.24;22.76;101502.66;5019591;28;20038;-73
2021/06/28 07:09:18;;;;;;;6.90;3.97;;;;;;;31.97;24.68;101500.69;5021046;28;20045;-72
2021/06/28 07:11:44;;;;;;;5.95;3.78;;;;;;;32.03;23.63;101505.34;5018894;28;20498;-74
2021/06/28 07:14:10;;;;;;;6.95;4.68;;;;;;;32.11;23.28;101499.81;5020679;28;20041;-71
2021/06/28 07:16:36;;;;;;;6.43;4.55;;;;;;;32.09;23.46;101501.03;5015788;28;20053;-71
2021/06/28 07:19:05;;;;;;;7.28;4.43;;;;;;;32.71;23.07;101500.47;5020140;28;20048;-71
2021/06/28 07:21:33;;;;;;;5.43;4.85;;;;;;;32.96;22.90;101508.22;5019363;28;20045;-73
2021/06/28 07:23:59;;;;;;;9.10;5.63;;;;;;;32.40;22.76;101495.38;5025599;28;20041;-72
2021/06/28 07:26:25;;;;;;;4.93;4.43;;;;;;;32.97;22.83;101505.31;5014826;28;20034;-73
2021/06/28 07:28:52;;;;;;;6.30;5.38;;;;;;;33.45;21.39;101501.91;5015395;28;20033;-73
2021/06/28 07:31:18;;;;;;;5.07;4.40;;;;;;;33.45;21.47;101507.34;5013055;28;20041;-73
2021/06/28 07:33:43;;;;;;;8.55;4.70;;;;;;;33.36;21.80;101514.78;5019880;28;20060;-72
2021/06/28 07:36:10;;;;;;;6.20;5.07;;;;;;;33.18;21.72;101512.53;4996597;28;20030;-73
2021/06/28 07:38:37;;;;;;;5.85;4.85;;;;;;;33.92;20.42;101503.00;5017927;28;20383;-72
2021/06/28 07:41:03;;;;;;;12.40;6.30;;;;;;;33.52;21.49;101510.09;5011367;28;20462;-71
2021/06/28 07:43:29;;;;;;;8.35;5.00;;;;;;;33.07;21.08;101515.78;5016322;28;20160;-72
2021/06/28 07:45:56;;;;;;;6.68;5.38;;;;;;;32.73;21.76;101509.22;5012153;28;20037;-72
2021/06/28 07:48:22;;;;;;;6.28;4.47;;;;;;;32.67;22.76;101504.59;5015367;28;20036;-72
2021/06/28 07:50:48;;;;;;;8.40;4.82;;;;;;;33.10;22.19;101504.59;5061846;22;20041;-69
2021/06/28 07:53:14;;;;;;;6.85;4.13;;;;;;;32.91;21.86;101505.25;5037466;28;20039;-69
2021/06/28 07:55:41;;;;;;;5.57;3.97;;;;;;;33.23;21.93;101493.00;5037663;28;20047;-69
2021/06/28 07:58:06;;;;;;;6.07;4.07;;;;;;;33.59;21.42;101492.84;5040002;28;20029;-69
2021/06/28 08:00:33;;;;;;;6.18;4.47;;;;;;;33.27;21.71;101493.47;5033268;28;20049;-68
2021/06/28 08:02:59;;;;;;;11.60;5.40;;;;;;;33.33;20.91;101487.28;5029719;28;20133;-68
2021/06/28 08:05:25;;;;;;;5.28;4.47;;;;;;;32.93;22.27;101482.38;5036079;28;20045;-68
2021/06/28 08:07:50;;;;;;;5.10;4.53;;;;;;;32.55;22.74;101484.50;5029495;28;20053;-69
2021/06/28 08:10:16;;;;;;;4.90;4.47;;;;;;;32.42;22.12;101479.81;5028926;28;20710;-68
2021/06/28 08:12:43;;;;;;;4.97;4.47;;;;;;;33.44;21.99;101478.59;5029378;28;20509;-69
2021/06/28 08:15:10;;;;;;;5.13;4.68;;;;;;;34.05;22.11;101486.78;5029274;28;20147;-69
2021/06/28 08:17:35;;;;;;;8.65;6.03;;;;;;;33.69;21.99;101488.91;5035559;28;20075;-68
2021/06/28 08:20:01;;;;;;;5.53;4.05;;;;;;;34.94;20.33;101478.59;5030951;28;20100;-70
2021/06/28 08:22:27;;;;;;;10.50;5.60;;;;;;;35.14;20.04;101471.28;5034787;28;20034;-68
2021/06/28 08:24:52;;;;;;;5.53;5.07;;;;;;;34.66;20.06;101471.50;5031709;28;20092;-69
2021/06/28 08:27:18;;;;;;;6.15;4.72;;;;;;;34.92;20.26;101469.84;5033434;28;20036;-70
2021/06/28 08:29:44;;;;;;;8.95;6.03;;;;;;;34.79;20.79;101476.94;5031406;28;20061;-69
2021/06/28 08:32:10;;;;;;;6.68;5.57;;;;;;;35.69;19.13;101477.22;5028850;28;20036;-68
2021/06/28 08:34:36;;;;;;;6.45;5.90;;;;;;;35.46;19.20;101472.28;5031275;28;20391;-68
2021/06/28 08:37:02;;;;;;;7.25;6.13;;;;;;;35.24;20.54;101468.94;5027396;28;20669;-69
2021/06/28 08:39:28;;;;;;;6.90;6.20;;;;;;;34.85;20.26;101469.84;5032891;28;20151;-69
2021/06/28 08:41:55;;;;;;;5.85;5.07;;;;;;;34.41;20.25;101463.94;5028186;28;20037;-69
2021/06/28 08:44:22;;;;;;;8.02;5.55;;;;;;;34.83;20.17;101456.47;5029805;28;20029;-69
2021/06/28 08:46:48;;;;;;;9.20;6.53;;;;;;;34.53;20.11;101457.88;5030680;28;20535;-68
2021/06/28 08:49:14;;;;;;;7.18;6.15;;;;;;;34.33;20.67;101458.72;5030255;28;20025;-70
2021/06/28 08:51:40;;;;;;;7.72;5.93;;;;;;;34.09;21.24;101454.69;5044064;28;20128;-67
2021/06/28 08:54:10;;;;;;;7.65;6.93;;;;;;;33.79;22.18;101467.72;5029135;28;20025;-68
2021/06/28 08:56:37;;;;;;;8.95;6.70;;;;;;;33.96;21.88;101460.91;5025935;28;20132;-68
2021/06/28 08:59:05;;;;;;;6.47;5.47;;;;;;;34.10;20.77;101467.19;5028833;28;20040;-70
2021/06/28 09:01:33;;;;;;;7.47;5.43;;;;;;;34.58;20.27;101452.72;5029172;28;20029;-68
2021/06/28 09:03:58;;;;;;;4.78;4.30;;;;;;;34.64;20.45;101462.72;5026205;28;20087;-70
2021/06/28 09:06:26;;;;;;;6.30;4.95;;;;;;;34.73;20.76;101456.03;5034163;28;20045;-70
2021/06/28 09:08:57;;;;;;;5.85;5.25;;;;;;;33.94;21.30;101454.00;5011217;28;20033;-69
2021/06/28 09:11:23;;;;;;;8.45;5.47;;;;;;;33.24;21.12;101457.59;5024251;28;20033;-67
2021/06/28 09:13:53;;;;;;;5.00;4.38;;;;;;;33.70;21.40;101460.75;5014511;28;20130;-68
2021/06/28 09:16:29;;;;;;;9.90;5.15;;;;;;;34.62;21.76;101453.94;5029474;28;20037;-69
2021/06/28 09:19:01;;;;;;;7.95;6.18;;;;;;;33.74;21.83;101451.22;5032691;28;20041;-69
2021/06/28 09:21:45;;;;;;;6.50;4.97;;;;;;;33.00;23.09;101455.34;5030959;28;20538;-68
2021/06/28 09:24:32;;;;;;;8.10;6.30;;;;;;;32.51;22.75;101454.28;5030334;28;20418;-68
2021/06/28 09:27:18;;;;;;;5.78;5.00;;;;;;;32.54;23.33;101450.34;5039200;28;20112;-69
2021/06/28 09:29:55;;;;;;;8.40;5.70;;;;;;;32.18;23.37;101453.94;5031554;28;20037;-68
2021/06/28 09:32:22;;;;;;;8.38;5.40;;;;;;;32.47;23.47;101452.16;5038300;28;20065;-69
2021/06/28 09:34:50;;;;;;;8.98;7.53;;;;;;;32.36;23.72;101448.91;5037703;28;20029;-68
2021/06/28 09:37:17;;;;;;;6.07;5.22;;;;;;;32.19;24.60;101452.91;5037591;28;20109;-69
2021/06/28 09:39:48;;;;;;;7.75;6.13;;;;;;;31.15;24.17;101453.78;5029816;28;20110;-68
2021/06/28 09:42:21;;;;;;;8.07;5.72;;;;;;;30.80;24.86;101448.03;5030933;28;20520;-68
2021/06/28 09:45:20;;;;;;;7.43;4.93;;;;;;;30.69;25.43;101451.19;5036110;28;20134;-69
2021/06/28 09:47:49;;;;;;;7.35;5.90;;;;;;;29.96;26.13;101455.97;5022721;28;20053;-69
2021/06/28 09:50:23;;;;;;;5.68;5.00;;;;;;;30.08;26.05;101452.91;5036497;28;20763;-69
2021/06/28 09:52:56;;;;;;;6.40;4.13;;;;;;;30.72;26.71;101445.41;5031451;28;20410;-68
2021/06/28 09:55:34;;;;;;;8.90;5.07;;;;;;;31.03;25.41;101451.75;5033824;28;20128;-69
2021/06/28 09:58:22;;;;;;;5.35;4.63;;;;;;;31.14;25.11;101452.13;5032849;28;20107;-69
2021/06/28 10:00:50;;;;;;;8.48;5.25;;;;;;;30.84;26.11;101453.06;5030656;28;20033;-68
2021/06/28 10:03:43;;;;;;;6.15;5.53;;;;;;;30.10;26.46;101449.03;5029099;28;20148;-68
2021/06/28 10:08:40;;;;;;;5.13;4.13;;;;;;;29.75;26.08;101455.75;5029987;28;20040;-68
2021/06/28 10:11:14;;;;;;;4.43;3.53;;;;;;;30.20;26.92;101454.22;5031906;28;20120;-69
2021/06/28 10:13:40;;;;;;;7.43;5.43;;;;;;;29.77;28.85;101451.00;5028910;28;20746;-69
2021/06/28 10:16:07;;;;;;;6.72;3.97;;;;;;;30.41;25.97;101458.09;5032952;28;20041;-68
2021/06/28 10:18:32;;;;;;;4.75;3.42;;;;;;;30.52;27.12;101449.59;5036884;28;20625;-68
2021/06/28 10:20:58;;;;;;;4.45;4.05;;;;;;;30.83;26.50;101449.53;5042168;28;20072;-69
2021/06/28 10:23:24;;;;;;;5.00;4.50;;;;;;;30.91;25.51;101454.00;5034889;28;20044;-68
2021/06/28 10:25:49;;;;;;;5.07;3.55;;;;;;;30.30;24.99;101457.50;5037913;28;20073;-68
2021/06/28 10:28:15;;;;;;;5.90;4.32;;;;;;;30.13;25.67;101450.53;5037552;28;20112;-69
2021/06/28 10:30:41;;;;;;;4.50;4.07;;;;;;;30.31;26.24;101448.41;5037226;28;20025;-68
2021/06/28 10:33:09;;;;;;;4.85;4.25;;;;;;;30.30;26.59;101446.72;5033467;28;20025;-68
2021/06/28 10:35:41;;;;;;;4.35;3.50;;;;;;;29.90;25.29;101456.69;5032580;28;20048;-68
2021/06/28 10:38:12;;;;;;;3.88;3.28;;;;;;;30.10;25.74;101442.81;5037790;28;20466;-69
2021/06/28 10:40:44;;;;;;;5.55;4.43;;;;;;;30.24;26.21;101450.13;5038339;28;20060;-71
2021/06/28 10:43:34;;;;;;;5.63;4.15;;;;;;;29.99;24.85;101444.00;5045188;28;20140;-68
2021/06/28 10:46:02;;;;;;;10.43;4.28;;;;;;;30.74;24.93;101448.75;5038860;28;20091;-68
2021/06/28 10:48:31;;;;;;;4.65;3.47;;;;;;;30.89;24.56;101445.25;5038673;28;20029;-68
2021/06/28 10:51:06;;;;;;;3.67;3.38;;;;;;;31.45;24.14;101444.88;5034459;28;20033;-68
2021/06/28 10:53:32;;;;;;;6.93;3.20;;;;;;;31.24;24.74;101442.91;5035311;28;20030;-69
2021/06/28 10:56:46;;;;;;;3.90;3.33;;;;;;;31.27;23.33;101440.69;5039713;28;21483;-68
2021/06/28 10:58:57;;;;;;;4.10;3.70;;;;;;;31.34;24.04;101438.94;5020135;28;20442;-68
2021/06/28 11:01:41;;;;;;;4.90;3.50;;;;;;;30.57;26.52;101439.13;5042967;28;20044;-68
2021/06/28 11:04:07;;;;;;;3.75;3.20;;;;;;;30.52;24.18;101434.25;5038309;28;20116;-69
2021/06/28 11:06:34;;;;;;;4.95;2.60;;;;;;;31.29;23.78;101437.78;5033915;28;20593;-69
2021/06/28 11:09:03;;;;;;;4.72;2.78;;;;;;;31.25;23.09;101422.97;5033473;28;20032;-69
2021/06/28 11:12:28;;;;;;;3.33;3.03;;;;;;;31.77;22.78;101427.44;5031819;28;20572;-69
2021/06/28 11:15:05;;;;;;;4.72;2.88;;;;;;;31.02;22.47;101423.91;5010245;28;20602;-68
2021/06/28 11:17:49;;;;;;;4.03;2.70;;;;;;;31.08;23.77;101425.88;5047938;28;20041;-69
2021/06/28 11:20:26;;;;;;;4.72;3.97;;;;;;;31.29;22.82;101419.72;5046684;28;20033;-68
2021/06/28 11:22:54;;;;;;;3.83;3.05;;;;;;;31.45;23.07;101424.13;5033142;28;20033;-68
2021/06/28 11:25:23;;;;;;;3.47;2.30;;;;;;;31.38;21.86;101417.75;5027624;28;20024;-70
2021/06/28 11:28:13;;;;;;;2.88;2.65;;;;;;;32.21;21.90;101418.41;5031361;28;20036;-68
2021/06/28 11:31:09;;;;;;;4.63;3.95;;;;;;;32.61;20.56;101418.78;5017138;28;20652;-68